Time;durP1;ratioP1;P1;durP2;ratioP2;P2;SDS_P1;SDS_P2;PMS_P1;PMS_P2;Temp;Humidity;BMP_temperature;BMP_pressure;BME280_temperature;BME280_humidity;BME280_pressure;Samples;Min_cycle;Max_cycle;Signal;HPM_P1;HPM_P2
2022/05/20 00:02:26;;;;;;;3.90;3.10;;;22.20;99.90;;;;;;5033868;28;20455;-61
2022/05/20 00:04:52;;;;;;;3.13;2.80;;;22.20;99.90;;;;;;5033764;28;20551;-61
2022/05/20 00:07:19;;;;;;;3.00;2.80;;;22.10;99.90;;;;;;5033706;28;20540;-61
2022/05/20 00:09:45;;;;;;;3.20;3.00;;;22.00;99.90;;;;;;5033798;28;20448;-61
2022/05/20 00:12:12;;;;;;;3.20;3.00;;;21.90;99.90;;;;;;5033752;28;20449;-61
2022/05/20 00:14:40;;;;;;;4.63;2.80;;;21.90;99.90;;;;;;5033756;28;20531;-61
2022/05/20 00:17:06;;;;;;;3.60;3.00;;;22.00;99.90;;;;;;5033572;28;20486;-61
2022/05/20 00:19:34;;;;;;;3.07;2.83;;;22.00;99.90;;;;;;5033488;28;20539;-61
2022/05/20 00:22:01;;;;;;;2.93;2.73;;;22.00;99.90;;;;;;5033365;28;20552;-61
2022/05/20 00:24:29;;;;;;;4.20;2.67;;;21.90;99.90;;;;;;5033639;28;20476;-61
2022/05/20 00:26:56;;;;;;;3.40;2.93;;;21.90;99.90;;;;;;5033745;28;20449;-61
2022/05/20 00:29:23;;;;;;;2.70;2.50;;;22.00;99.90;;;;;;5033408;28;20453;-61
2022/05/20 00:31:51;;;;;;;3.17;2.87;;;22.00;99.90;;;;;;5033515;28;21023;-61
2022/05/20 00:34:17;;;;;;;2.67;2.47;;;22.00;99.90;;;;;;5033354;28;20893;-61
2022/05/20 00:36:44;;;;;;;3.03;2.83;;;21.80;99.90;;;;;;5033219;28;20809;-61
2022/05/20 00:39:10;;;;;;;5.30;3.00;;;21.80;99.90;;;;;;5033033;28;20521;-61
2022/05/20 00:41:37;;;;;;;7.73;2.67;;;21.70;99.90;;;;;;5033043;28;20979;-61
2022/05/20 00:44:03;;;;;;;5.90;2.50;;;21.70;99.90;;;;;;5033158;28;20569;-61
2022/05/20 00:46:30;;;;;;;3.07;2.87;;;21.60;99.90;;;;;;5033266;28;20449;-61
2022/05/20 00:49:01;;;;;;;3.73;2.83;;;21.50;99.90;;;;;;5033140;28;20456;-61
2022/05/20 00:51:32;;;;;;;3.43;2.73;;;21.40;99.90;;;;;;5033067;28;20481;-61
2022/05/20 00:54:02;;;;;;;3.93;2.50;;;21.30;99.90;;;;;;5033333;28;20536;-61
2022/05/20 00:56:33;;;;;;;2.53;2.33;;;21.20;99.90;;;;;;5033177;28;20453;-61
2022/05/20 00:59:00;;;;;;;2.90;2.70;;;21.20;99.90;;;;;;5033047;28;20841;-61
2022/05/20 01:01:28;;;;;;;2.80;2.30;;;21.30;99.90;;;;;;5032958;28;20475;-61
2022/05/20 01:03:56;;;;;;;2.53;2.33;;;21.30;99.90;;;;;;5032419;28;20453;-60
2022/05/20 01:06:24;;;;;;;2.50;2.30;;;21.20;99.90;;;;;;5033123;28;21141;-61
2022/05/20 01:08:51;;;;;;;4.67;2.50;;;21.10;99.90;;;;;;5032865;28;20450;-61
2022/05/20 01:11:18;;;;;;;4.87;2.83;;;21.00;99.90;;;;;;5032981;28;20540;-61
2022/05/20 01:13:47;;;;;;;3.90;2.70;;;21.00;99.90;;;;;;5033095;28;20433;-60
2022/05/20 01:16:15;;;;;;;2.40;2.30;;;21.00;99.90;;;;;;5032852;28;20941;-61
2022/05/20 01:18:48;;;;;;;3.50;3.07;;;21.00;99.90;;;;;;5032862;28;20484;-61
2022/05/20 01:21:14;;;;;;;9.50;2.00;;;21.00;99.90;;;;;;5033135;28;20445;-61
2022/05/20 01:23:42;;;;;;;3.87;2.20;;;21.00;99.90;;;;;;5032930;28;20460;-61
2022/05/20 01:26:09;;;;;;;5.70;3.07;;;21.00;99.90;;;;;;5032779;28;20539;-61
2022/05/20 01:28:36;;;;;;;3.03;2.83;;;20.90;99.90;;;;;;5032712;28;20879;-61
2022/05/20 01:31:05;;;;;;;2.30;2.20;;;20.90;99.90;;;;;;5032628;28;20457;-61
2022/05/20 01:33:34;;;;;;;2.60;2.40;;;21.00;99.90;;;;;;5032755;28;20536;-61
2022/05/20 01:36:03;;;;;;;2.77;2.40;;;20.90;99.90;;;;;;5032734;28;20456;-61
2022/05/20 01:38:30;;;;;;;4.17;2.53;;;20.90;99.90;;;;;;5032885;28;20843;-61
2022/05/20 01:41:01;;;;;;;2.40;2.20;;;20.80;99.90;;;;;;5032616;28;20453;-61
2022/05/20 01:43:37;;;;;;;5.73;2.67;;;20.60;99.90;;;;;;5032405;28;20505;-61
2022/05/20 01:46:13;;;;;;;3.07;2.87;;;20.40;99.90;;;;;;5032707;28;20545;-61
2022/05/20 01:48:49;;;;;;;5.00;2.47;;;20.30;99.90;;;;;;5032574;28;21064;-61
2022/05/20 01:51:19;;;;;;;2.77;2.60;;;20.50;99.90;;;;;;5032514;28;20452;-61
2022/05/20 01:53:50;;;;;;;2.67;2.57;;;20.50;99.90;;;;;;5032383;28;20507;-61
2022/05/20 01:56:23;;;;;;;3.50;2.70;;;20.50;99.90;;;;;;5032391;28;20921;-61
2022/05/20 01:58:57;;;;;;;2.63;2.43;;;20.30;99.90;;;;;;5032494;28;20484;-61
2022/05/20 02:01:28;;;;;;;3.13;2.90;;;20.30;99.90;;;;;;5032525;28;20540;-61
2022/05/20 02:03:58;;;;;;;3.07;2.83;;;20.30;99.90;;;;;;5032480;28;20913;-61
2022/05/20 02:06:30;;;;;;;3.47;3.13;;;20.30;99.90;;;;;;5032208;28;20548;-61
2022/05/20 02:09:01;;;;;;;3.30;3.00;;;20.30;99.90;;;;;;5032609;28;20484;-61
2022/05/20 02:11:35;;;;;;;3.10;2.90;;;20.20;99.90;;;;;;5032454;28;20544;-61
2022/05/20 02:14:09;;;;;;;5.70;3.00;;;20.00;99.90;;;;;;5033020;28;20543;-61
2022/05/20 02:16:41;;;;;;;3.73;3.43;;;20.00;99.90;;;;;;5035574;28;20540;-61
2022/05/20 02:19:13;;;;;;;3.10;2.90;;;20.00;99.90;;;;;;5035988;28;20723;-61
2022/05/20 02:21:43;;;;;;;3.57;3.37;;;20.00;99.90;;;;;;5035896;28;20905;-61
2022/05/20 02:24:12;;;;;;;7.50;4.10;;;20.10;99.90;;;;;;5035774;28;20543;-61
2022/05/20 02:26:46;;;;;;;4.20;3.80;;;20.00;99.90;;;;;;5035632;28;20453;-61
2022/05/20 02:29:19;;;;;;;3.70;3.40;;;20.00;99.90;;;;;;5035541;28;20544;-61
2022/05/20 02:31:51;;;;;;;5.57;5.00;;;19.80;99.90;;;;;;5035903;28;20548;-61
2022/05/20 02:34:18;;;;;;;4.70;4.30;;;19.80;99.90;;;;;;5035612;28;20453;-61
2022/05/20 02:36:44;;;;;;;8.60;4.93;;;19.70;99.90;;;;;;5035494;28;20488;-61
2022/05/20 02:39:15;;;;;;;5.10;4.73;;;19.80;99.90;;;;;;5035460;28;21022;-61
2022/05/20 02:41:45;;;;;;;4.70;4.40;;;19.70;99.90;;;;;;5035343;28;20450;-61
2022/05/20 02:44:11;;;;;;;5.17;4.77;;;19.70;99.90;;;;;;5035367;28;20476;-61
2022/05/20 02:46:39;;;;;;;5.60;5.30;;;19.60;99.90;;;;;;5035648;28;20532;-61
2022/05/20 02:49:06;;;;;;;5.10;4.80;;;19.60;99.90;;;;;;5035150;28;21003;-61
2022/05/20 02:51:32;;;;;;;4.97;4.63;;;19.60;99.90;;;;;;5035253;28;20459;-61
2022/05/20 02:53:59;;;;;;;5.47;5.00;;;19.70;99.90;;;;;;5035219;28;20559;-61
2022/05/20 02:56:26;;;;;;;8.60;5.23;;;19.70;99.90;;;;;;5034968;28;20449;-61
2022/05/20 03:04:22;;;;;;;6.27;5.33;;;19.60;99.90;;;;;;5035209;28;20544;-61
2022/05/20 03:06:50;;;;;;;6.57;6.00;;;19.60;99.90;;;;;;5034804;28;20540;-61
2022/05/20 03:09:19;;;;;;;6.60;6.10;;;19.50;99.90;;;;;;5034994;28;20540;-61
2022/05/20 03:11:46;;;;;;;6.70;6.10;;;19.50;99.90;;;;;;5034908;28;20876;-61
2022/05/20 03:14:17;;;;;;;6.70;6.10;;;19.60;99.90;;;;;;5034774;28;20543;-61
2022/05/20 03:16:44;;;;;;;7.30;6.57;;;19.60;99.90;;;;;;5034557;28;20963;-61
2022/05/20 03:19:11;;;;;;;6.00;5.60;;;19.50;99.90;;;;;;5034400;28;21051;-61
2022/05/20 03:21:39;;;;;;;6.03;5.60;;;19.50;99.90;;;;;;5034815;28;20454;-61
2022/05/20 03:24:08;;;;;;;6.33;5.93;;;19.60;99.90;;;;;;5034688;28;20453;-61
2022/05/20 03:26:35;;;;;;;6.40;6.00;;;19.60;99.90;;;;;;5034276;28;20453;-60
2022/05/20 03:29:04;;;;;;;6.17;5.63;;;19.70;99.90;;;;;;5034579;28;20532;-61
2022/05/20 03:31:33;;;;;;;8.07;6.43;;;19.70;99.90;;;;;;5034810;28;20994;-61
2022/05/20 03:34:05;;;;;;;6.60;6.10;;;19.80;99.90;;;;;;5034350;28;20445;-61
2022/05/20 03:36:32;;;;;;;8.93;6.10;;;19.70;99.90;;;;;;5034560;28;20445;-61
2022/05/20 03:38:58;;;;;;;6.40;6.00;;;19.70;99.90;;;;;;5034328;28;20488;-61
2022/05/20 03:41:25;;;;;;;6.10;5.57;;;19.70;99.90;;;;;;5034264;28;20476;-61
2022/05/20 03:43:51;;;;;;;6.17;5.57;;;19.60;99.90;;;;;;5033990;28;20477;-61
2022/05/20 03:46:18;;;;;;;6.47;5.97;;;19.80;99.90;;;;;;5034027;28;20532;-61
2022/05/20 03:48:45;;;;;;;7.37;6.67;;;19.80;99.90;;;;;;5034230;28;20960;-61
2022/05/20 03:51:14;;;;;;;6.40;5.90;;;19.80;99.90;;;;;;5034128;28;20453;-61
2022/05/20 03:53:42;;;;;;;6.90;6.37;;;19.80;99.90;;;;;;5034080;28;20880;-61
2022/05/20 03:56:08;;;;;;;6.73;6.17;;;19.90;99.90;;;;;;5033928;28;20456;-61
2022/05/20 03:58:36;;;;;;;7.60;6.90;;;19.90;99.90;;;;;;5033774;28;20565;-61
2022/05/20 04:03:48;;;;;;;6.70;6.10;;;19.90;99.90;;;;;;5033916;28;20994;-61
2022/05/20 04:06:15;;;;;;;6.23;5.73;;;20.00;99.90;;;;;;5033816;28;20557;-61
2022/05/20 04:08:42;;;;;;;6.07;5.67;;;19.90;99.90;;;;;;5033740;28;20873;-61
2022/05/20 04:11:11;;;;;;;6.53;6.03;;;19.80;99.90;;;;;;5033670;28;20451;-61
2022/05/20 04:13:39;;;;;;;6.40;5.90;;;19.70;99.90;;;;;;5033538;28;21006;-61
2022/05/20 04:16:05;;;;;;;7.20;6.70;;;19.80;99.90;;;;;;5033744;28;20455;-61
2022/05/20 04:18:32;;;;;;;7.00;6.47;;;19.80;99.90;;;;;;5033526;28;20492;-61
2022/05/20 04:21:00;;;;;;;8.13;6.87;;;19.90;99.90;;;;;;5033538;28;20893;-61
2022/05/20 04:23:26;;;;;;;6.30;5.80;;;20.00;99.90;;;;;;5033517;28;20539;-61
2022/05/20 04:25:53;;;;;;;10.80;6.63;;;20.00;99.90;;;;;;5033304;28;20536;-61
2022/05/20 04:28:19;;;;;;;8.50;5.47;;;20.00;99.90;;;;;;5033457;28;20879;-61
2022/05/20 04:30:46;;;;;;;6.57;5.97;;;20.10;99.90;;;;;;5033451;28;20452;-61
2022/05/20 04:33:13;;;;;;;7.00;6.30;;;20.00;99.90;;;;;;5033345;28;20445;-61
2022/05/20 04:35:40;;;;;;;7.97;7.10;;;20.00;99.90;;;;;;5033142;28;20970;-61
2022/05/20 04:38:08;;;;;;;6.77;6.17;;;20.00;99.90;;;;;;5032659;28;21023;-61
2022/05/20 04:40:34;;;;;;;7.47;6.87;;;20.00;99.90;;;;;;5033029;28;20905;-61
2022/05/20 04:48:31;;;;;;;10.10;7.03;;;20.10;99.90;;;;;;5007702;28;20444;-61
2022/05/20 04:50:58;;;;;;;7.40;6.70;;;20.00;99.90;;;;;;5032955;28;20481;-61
2022/05/20 04:56:11;;;;;;;6.67;6.10;;;20.10;99.90;;;;;;5032937;28;20436;-61
2022/05/20 04:58:38;;;;;;;7.43;6.83;;;19.90;99.90;;;;;;5033007;28;20445;-61
2022/05/20 05:01:05;;;;;;;6.63;6.20;;;20.00;99.90;;;;;;5032918;28;20457;-61
2022/05/20 05:03:32;;;;;;;6.80;5.63;;;20.10;99.90;;;;;;5032776;28;20452;-61
2022/05/20 05:05:59;;;;;;;7.87;7.27;;;20.10;99.90;;;;;;5033143;28;20449;-61
2022/05/20 05:08:27;;;;;;;8.33;7.80;;;20.10;99.90;;;;;;5033040;28;20850;-61
2022/05/20 05:10:53;;;;;;;7.63;7.10;;;20.10;99.90;;;;;;5032800;28;20451;-61
2022/05/20 05:13:20;;;;;;;9.70;7.27;;;20.20;99.90;;;;;;5033026;28;20481;-61
2022/05/20 05:15:46;;;;;;;8.20;7.50;;;20.20;99.90;;;;;;5032872;28;20496;-61
2022/05/20 05:18:13;;;;;;;7.87;7.27;;;20.30;99.90;;;;;;5032765;28;20906;-61
2022/05/20 05:20:45;;;;;;;7.57;6.93;;;20.20;99.90;;;;;;5032750;28;21065;-61
2022/05/20 05:23:12;;;;;;;6.93;6.30;;;20.30;99.90;;;;;;5032803;28;20569;-61
2022/05/20 05:25:40;;;;;;;7.00;6.30;;;20.40;99.90;;;;;;5032633;28;20449;-61
2022/05/20 05:28:07;;;;;;;8.03;7.43;;;20.50;99.90;;;;;;5032519;28;20457;-61
2022/05/20 05:30:34;;;;;;;7.90;7.30;;;20.50;99.90;;;;;;5033004;28;20475;-61
2022/05/20 05:33:01;;;;;;;7.00;6.40;;;20.60;99.90;;;;;;5032796;28;20460;-61
2022/05/20 05:35:33;;;;;;;9.20;8.33;;;20.60;99.90;;;;;;5032481;28;20449;-61
2022/05/20 05:37:59;;;;;;;7.53;6.83;;;20.70;99.90;;;;;;5032604;28;20546;-61
2022/05/20 05:40:29;;;;;;;6.80;6.40;;;20.70;99.90;;;;;;5032509;28;20572;-61
2022/05/20 05:42:59;;;;;;;8.70;7.83;;;20.90;99.90;;;;;;5032195;28;20477;-61
2022/05/20 05:45:27;;;;;;;9.13;8.33;;;21.00;99.90;;;;;;5032622;28;20544;-61
2022/05/20 05:48:00;;;;;;;8.53;7.93;;;21.00;99.90;;;;;;5032582;28;20723;-61
2022/05/20 05:50:28;;;;;;;8.47;7.87;;;20.90;99.90;;;;;;5035842;28;20452;-61
2022/05/20 05:52:55;;;;;;;8.63;8.03;;;20.90;99.90;;;;;;5036421;28;20444;-61
2022/05/20 05:55:22;;;;;;;9.13;8.20;;;20.90;99.90;;;;;;5036111;28;20539;-61
2022/05/20 05:57:48;;;;;;;8.30;7.60;;;21.10;99.90;;;;;;5036079;28;20496;-61
2022/05/20 06:00:17;;;;;;;8.40;7.70;;;21.30;99.90;;;;;;5036106;28;20491;-61
2022/05/20 06:02:44;;;;;;;7.30;6.80;;;21.60;99.90;;;;;;5036127;28;20509;-61
2022/05/20 06:05:10;;;;;;;7.87;7.00;;;21.70;99.90;;;;;;5036042;28;20543;-61
2022/05/20 06:07:37;;;;;;;10.07;7.23;;;21.80;99.90;;;;;;5035822;28;20551;-61
2022/05/20 06:10:04;;;;;;;8.10;7.40;;;22.00;99.90;;;;;;5035834;28;20481;-61
2022/05/20 06:12:33;;;;;;;8.10;7.50;;;21.90;99.90;;;;;;5035969;28;20452;-61
2022/05/20 06:15:03;;;;;;;7.70;7.00;;;22.10;99.90;;;;;;5036192;28;20491;-61
2022/05/20 06:17:32;;;;;;;8.63;7.93;;;22.30;99.90;;;;;;5035796;28;20528;-61
2022/05/20 06:19:59;;;;;;;7.67;7.07;;;22.10;99.90;;;;;;5035601;28;20480;-61
2022/05/20 06:22:26;;;;;;;9.47;8.30;;;22.10;99.90;;;;;;5035725;28;20448;-61
2022/05/20 06:24:52;;;;;;;10.00;9.20;;;22.00;99.90;;;;;;5035401;28;20975;-61
2022/05/20 06:27:19;;;;;;;9.73;8.70;;;21.70;99.90;;;;;;5035735;28;20449;-61
2022/05/20 06:29:47;;;;;;;8.43;7.80;;;21.70;99.90;;;;;;5035604;28;20449;-61
2022/05/20 06:32:14;;;;;;;9.33;8.63;;;21.70;99.90;;;;;;5035455;28;20549;-61
2022/05/20 06:40:13;;;;;;;11.47;8.70;;;22.00;99.90;;;;;;5035272;28;20484;-61
2022/05/20 06:42:42;;;;;;;7.67;7.00;;;22.00;99.90;;;;;;5034864;28;20556;-61
2022/05/20 06:45:10;;;;;;;7.83;7.10;;;21.80;99.90;;;;;;5035130;28;20453;-61
2022/05/20 06:47:37;;;;;;;8.17;7.57;;;21.90;99.90;;;;;;5034940;28;20532;-61
2022/05/20 06:50:06;;;;;;;11.23;8.40;;;22.00;99.90;;;;;;5035380;28;20549;-61
2022/05/20 06:52:33;;;;;;;8.30;7.60;;;22.00;99.90;;;;;;5035474;28;20540;-61
2022/05/20 06:55:00;;;;;;;8.47;7.60;;;22.00;99.90;;;;;;5034963;28;20453;-61
2022/05/20 06:57:27;;;;;;;7.13;6.50;;;22.10;99.90;;;;;;5035036;28;20531;-61
2022/05/20 06:59:53;;;;;;;6.50;6.00;;;22.10;99.90;;;;;;5034879;28;20488;-61
2022/05/20 07:02:20;;;;;;;10.90;7.40;;;22.20;99.90;;;;;;5034195;28;20548;-61
2022/05/20 07:04:47;;;;;;;7.10;6.50;;;22.10;99.90;;;;;;5035044;28;20446;-61
2022/05/20 07:07:15;;;;;;;7.90;7.27;;;22.20;99.90;;;;;;5034925;28;20477;-61
2022/05/20 07:09:42;;;;;;;6.57;6.10;;;22.50;99.90;;;;;;5034746;28;20534;-61
2022/05/20 07:12:09;;;;;;;7.23;6.63;;;22.60;99.90;;;;;;5034456;28;20449;-61
2022/05/20 07:14:36;;;;;;;7.00;6.40;;;22.70;99.90;;;;;;5034523;28;20476;-61
2022/05/20 07:17:03;;;;;;;6.73;6.13;;;22.80;99.90;;;;;;5034568;28;20556;-59
2022/05/20 07:19:29;;;;;;;6.47;5.83;;;22.80;99.90;;;;;;5053906;28;20448;-59
2022/05/20 07:21:56;;;;;;;6.33;5.80;;;22.80;99.90;;;;;;5054495;28;20459;-58
2022/05/20 07:24:24;;;;;;;6.27;5.67;;;22.80;99.90;;;;;;5054510;28;20892;-61
2022/05/20 07:26:50;;;;;;;5.50;5.00;;;23.00;99.90;;;;;;5054535;28;20454;-56
2022/05/20 07:29:16;;;;;;;9.00;4.93;;;22.90;99.90;;;;;;5053993;28;20455;-61
2022/05/20 07:31:43;;;;;;;6.30;5.80;;;23.10;99.90;;;;;;5054273;28;20562;-59
2022/05/20 07:34:10;;;;;;;5.50;5.00;;;23.10;99.90;;;;;;5054381;28;20876;-57
2022/05/20 07:36:36;;;;;;;5.90;5.30;;;23.20;99.90;;;;;;5054199;28;20441;-67
2022/05/20 07:39:04;;;;;;;6.00;5.50;;;23.30;99.90;;;;;;5054126;28;21030;-62
2022/05/20 07:41:32;;;;;;;6.00;5.53;;;23.20;99.90;;;;;;5053759;28;20975;-62
2022/05/20 07:43:58;;;;;;;5.03;4.40;;;23.20;99.90;;;;;;5053761;28;20526;-61
2022/05/20 07:46:25;;;;;;;5.70;5.30;;;23.50;99.90;;;;;;5054009;28;20831;-61
2022/05/20 07:48:51;;;;;;;5.37;4.97;;;23.50;99.90;;;;;;5054191;28;20444;-59
2022/05/20 07:51:22;;;;;;;5.40;5.00;;;23.60;99.90;;;;;;5054078;28;20478;-64
2022/05/20 07:53:54;;;;;;;6.73;5.20;;;23.80;99.90;;;;;;5053878;28;20479;-64
2022/05/20 07:56:24;;;;;;;6.45;5.07;;;23.80;99.90;;;;;;5053723;28;20487;-60
2022/05/20 07:59:02;;;;;;;4.93;4.50;;;23.70;99.90;;;;;;5051845;28;20542;-60
2022/05/20 08:01:32;;;;;;;4.50;4.10;;;23.50;99.90;;;;;;5053240;28;20855;-60
2022/05/20 08:06:47;;;;;;;4.40;4.10;;;23.40;99.90;;;;;;5058975;28;20434;-61
2022/05/20 08:09:13;;;;;;;4.97;4.57;;;23.50;99.90;;;;;;5073294;28;20614;-60
2022/05/20 08:11:40;;;;;;;4.23;4.03;;;23.70;99.90;;;;;;5073150;28;21021;-63
2022/05/20 08:14:08;;;;;;;6.60;4.97;;;23.90;99.90;;;;;;5054838;28;20445;-61
2022/05/20 08:16:34;;;;;;;5.43;4.10;;;23.90;99.90;;;;;;5048939;28;20480;-62
2022/05/20 08:19:01;;;;;;;5.07;4.50;;;24.00;99.90;;;;;;5071903;28;20455;-50
2022/05/20 08:21:27;;;;;;;4.30;3.90;;;24.00;99.90;;;;;;5067404;28;20538;-62
2022/05/20 08:23:54;;;;;;;3.93;3.73;;;24.00;99.90;;;;;;5054069;28;20440;-60
2022/05/20 08:26:20;;;;;;;4.00;3.80;;;24.20;99.90;;;;;;5072908;28;20886;-60
2022/05/20 08:28:47;;;;;;;4.13;3.83;;;24.40;99.90;;;;;;5073216;28;20538;-60
2022/05/20 08:31:15;;;;;;;6.40;4.23;;;24.70;99.90;;;;;;5067155;28;20448;-59
2022/05/20 08:33:42;;;;;;;4.43;4.07;;;24.90;99.90;;;;;;5052844;28;20540;-60
2022/05/20 08:36:09;;;;;;;3.67;3.37;;;25.10;99.90;;;;;;5052868;28;20488;-59
2022/05/20 08:38:35;;;;;;;4.82;4.47;;;25.00;99.90;;;;;;5037497;28;20424;-52
2022/05/20 08:41:02;;;;;;;4.53;4.13;;;25.00;99.90;;;;;;5032850;28;20324;-60
2022/05/20 08:43:31;;;;;;;6.00;4.77;;;24.60;99.90;;;;;;5032669;28;21011;-48
2022/05/20 08:45:59;;;;;;;6.03;3.90;;;24.60;99.90;;;;;;5032957;28;20548;-59
2022/05/20 08:48:28;;;;;;;4.33;3.70;;;24.60;99.90;;;;;;5032554;28;20794;-59
2022/05/20 08:50:57;;;;;;;3.50;3.23;;;24.50;99.90;;;;;;5033315;28;20884;-59
2022/05/20 08:53:29;;;;;;;5.00;3.37;;;24.60;99.90;;;;;;5032656;28;20540;-58
2022/05/20 08:55:58;;;;;;;5.63;3.60;;;24.70;99.90;;;;;;5033043;28;20456;-54
2022/05/20 08:58:25;;;;;;;2.80;2.60;;;24.80;99.90;;;;;;5032868;28;20539;-60
2022/05/20 09:00:52;;;;;;;5.23;3.07;;;24.90;99.90;;;;;;5032891;28;20480;-56
2022/05/20 09:03:18;;;;;;;3.30;3.10;;;25.10;99.90;;;;;;5032400;28;20553;-56
2022/05/20 09:05:47;;;;;;;3.43;3.23;;;25.20;99.90;;;;;;5032969;28;20649;-54
2022/05/20 09:08:25;;;;;;;5.67;3.33;;;25.30;99.90;;;;;;5032915;28;20449;-59
2022/05/20 09:10:54;;;;;;;2.90;2.70;;;25.30;99.90;;;;;;5032851;28;20532;-55
2022/05/20 09:15:43;;;;;;;4.57;2.90;;;25.00;99.90;;;;;;5032724;28;20461;-57
2022/05/20 09:16:13;;;;;;;4.07;3.42;;;25.10;99.90;;;;;;5032249;28;20449;-63
2022/05/20 09:18:42;;;;;;;4.43;3.60;;;25.30;99.90;;;;;;5032684;28;20236;-58
2022/05/20 09:21:25;;;;;;;2.60;2.40;;;25.20;99.90;;;;;;5032423;28;20481;-60
2022/05/20 09:23:54;;;;;;;2.27;2.03;;;25.20;99.90;;;;;;5033430;28;20449;-59
2022/05/20 09:26:24;;;;;;;3.83;3.20;;;25.50;99.90;;;;;;5037034;28;20455;-60
2022/05/20 09:28:54;;;;;;;2.87;2.60;;;25.40;99.90;;;;;;5036671;28;20452;-60
2022/05/20 09:31:25;;;;;;;3.33;3.07;;;25.30;99.90;;;;;;5036650;28;20865;-56
2022/05/20 09:34:04;;;;;;;2.63;2.53;;;25.40;99.90;;;;;;5036692;28;20495;-60
2022/05/20 09:36:39;;;;;;;5.80;3.23;;;25.60;99.90;;;;;;5036153;28;20453;-60
2022/05/20 09:39:13;;;;;;;4.40;3.10;;;25.70;99.90;;;;;;5035622;28;20539;-63
2022/05/20 09:41:52;;;;;;;2.80;2.60;;;25.80;99.90;;;;;;5036537;28;20542;-63
2022/05/20 09:44:23;;;;;;;3.67;3.33;;;25.50;99.90;;;;;;5036473;28;20522;-64
2022/05/20 09:46:53;;;;;;;3.40;3.20;;;25.60;99.90;;;;;;5036296;28;20808;-64
2022/05/20 09:49:30;;;;;;;3.67;3.40;;;25.50;99.90;;;;;;5036546;28;20548;-63
2022/05/20 09:52:01;;;;;;;5.03;3.00;;;25.70;99.90;;;;;;5036126;28;20491;-59
2022/05/20 09:54:32;;;;;;;3.27;3.00;;;25.80;99.90;;;;;;5036078;28;20535;-60
2022/05/20 09:57:05;;;;;;;2.83;2.60;;;25.90;99.90;;;;;;5035989;28;20916;-62
2022/05/20 09:59:40;;;;;;;3.43;2.87;;;26.00;99.90;;;;;;5036038;28;20536;-61
2022/05/20 10:02:16;;;;;;;2.60;2.40;;;26.00;99.90;;;;;;5036180;28;20571;-59
2022/05/20 10:04:49;;;;;;;4.13;2.50;;;26.10;99.90;;;;;;5036096;28;20487;-60
2022/05/20 10:07:31;;;;;;;2.80;2.60;;;26.30;99.90;;;;;;5036118;28;20473;-60
2022/05/20 10:10:03;;;;;;;3.13;2.77;;;26.50;99.90;;;;;;5035876;28;21003;-60
2022/05/20 10:12:33;;;;;;;2.87;2.67;;;26.60;99.90;;;;;;5036072;28;20540;-60
2022/05/20 10:15:06;;;;;;;2.30;2.10;;;26.70;99.90;;;;;;5035935;28;20555;-61
2022/05/20 10:17:44;;;;;;;4.03;2.53;;;26.80;99.90;;;;;;5035894;28;20460;-61
2022/05/20 10:20:15;;;;;;;3.10;2.47;;;26.90;99.90;;;;;;5035581;28;20544;-64
2022/05/20 10:22:56;;;;;;;2.70;2.53;;;27.00;99.90;;;;;;5035482;28;20489;-64
2022/05/20 10:25:29;;;;;;;2.57;2.37;;;26.90;99.90;;;;;;5035448;28;20999;-59
2022/05/20 10:28:02;;;;;;;3.63;2.27;;;26.80;99.90;;;;;;5035592;28;20469;-62
2022/05/20 10:33:24;;;;;;;4.00;2.03;;;26.70;99.90;;;;;;5035324;28;20974;-63
2022/05/20 10:36:03;;;;;;;3.23;2.47;;;27.00;99.90;;;;;;5034567;28;20541;-59
2022/05/20 10:38:58;;;;;;;2.73;2.47;;;27.00;99.90;;;;;;5035484;28;20797;-65
2022/05/20 10:41:46;;;;;;;2.50;2.30;;;27.20;99.80;;;;;;5034877;28;20556;-65
2022/05/20 10:50:14;;;;;;;2.57;2.37;;;26.90;98.20;;;;;;5035274;28;20795;-70
2022/05/20 10:53:00;;;;;;;2.43;2.20;;;27.20;99.10;;;;;;5035354;28;20874;-60
2022/05/20 10:55:43;;;;;;;2.40;2.30;;;27.50;97.80;;;;;;5035063;28;20820;-58
2022/05/20 10:58:47;;;;;;;4.30;2.23;;;27.50;98.20;;;;;;5035258;28;20804;-59
2022/05/20 11:01:19;;;;;;;3.13;2.40;;;27.10;98.50;;;;;;5034913;28;20477;-61
2022/05/20 11:04:11;;;;;;;3.60;2.70;;;27.50;99.10;;;;;;5034886;28;20460;-61
2022/05/20 11:07:04;;;;;;;3.50;2.50;;;27.60;98.20;;;;;;5035081;28;20560;-61
2022/05/20 11:09:42;;;;;;;2.50;2.30;;;27.60;98.20;;;;;;5034886;28;20483;-61
2022/05/20 11:12:18;;;;;;;2.23;2.00;;;27.60;97.80;;;;;;5035026;28;20548;-61
2022/05/20 11:15:18;;;;;;;3.13;2.47;;;27.90;97.40;;;;;;5035444;28;20507;-61
2022/05/20 11:18:13;;;;;;;2.90;2.27;;;27.90;96.30;;;;;;5031354;28;20496;-62
2022/05/20 11:20:57;;;;;;;3.23;2.47;;;28.00;94.20;;;;;;5027503;28;20528;-61
2022/05/20 11:23:54;;;;;;;2.93;2.13;;;27.80;95.10;;;;;;5034534;28;20998;-62
2022/05/20 11:26:53;;;;;;;3.70;1.70;;;28.00;94.70;;;;;;5034629;28;20885;-62
2022/05/20 11:29:56;;;;;;;2.27;2.07;;;28.20;93.50;;;;;;5034583;28;20536;-62
2022/05/20 11:32:35;;;;;;;2.33;2.07;;;28.20;92.30;;;;;;5034485;28;20448;-61
2022/05/20 11:35:22;;;;;;;4.20;1.77;;;28.10;93.40;;;;;;5034465;28;20543;-62
2022/05/20 11:38:02;;;;;;;2.00;1.90;;;28.20;92.00;;;;;;5034467;28;20537;-61
2022/05/20 11:40:58;;;;;;;3.10;1.70;;;28.10;92.20;;;;;;5034372;28;20449;-61
2022/05/20 11:43:47;;;;;;;2.10;1.90;;;28.10;92.00;;;;;;5033864;28;20878;-61
2022/05/20 11:46:32;;;;;;;2.00;1.80;;;28.20;91.70;;;;;;5034283;28;20816;-61
2022/05/20 11:49:23;;;;;;;2.60;1.77;;;28.50;91.40;;;;;;5034214;28;20453;-61
2022/05/20 11:52:12;;;;;;;2.47;1.90;;;28.50;90.40;;;;;;5033975;28;20540;-61
2022/05/20 11:54:45;;;;;;;2.17;2.07;;;28.60;90.40;;;;;;5034064;28;20437;-61
2022/05/20 11:57:15;;;;;;;1.70;1.60;;;28.80;89.60;;;;;;5034325;28;20445;-61
2022/05/20 11:59:49;;;;;;;3.17;1.90;;;28.70;89.50;;;;;;5033857;28;20476;-61
2022/05/20 12:02:18;;;;;;;1.83;1.60;;;28.80;86.50;;;;;;5034040;28;20488;-61
2022/05/20 12:04:47;;;;;;;2.00;1.80;;;29.00;86.30;;;;;;5034054;28;20448;-61
2022/05/20 12:07:17;;;;;;;1.93;1.73;;;29.00;86.20;;;;;;5033775;28;20496;-61
2022/05/20 12:09:45;;;;;;;4.90;1.80;;;29.10;85.90;;;;;;5033808;28;20449;-61
2022/05/20 12:12:25;;;;;;;1.90;1.80;;;29.20;86.00;;;;;;5033822;28;20446;-61
2022/05/20 12:15:03;;;;;;;3.97;1.60;;;29.40;84.00;;;;;;5033700;28;20515;-61
2022/05/20 12:17:34;;;;;;;1.77;1.50;;;29.30;84.60;;;;;;5033755;28;20815;-61
2022/05/20 12:25:53;;;;;;;1.63;1.53;;;29.60;82.90;;;;;;5033581;28;20467;-59
2022/05/20 12:28:32;;;;;;;1.70;1.60;;;29.60;81.50;;;;;;5033487;28;20943;-60
2022/05/20 12:31:08;;;;;;;1.77;1.67;;;29.40;82.40;;;;;;5033361;28;20445;-59
2022/05/20 12:33:54;;;;;;;7.87;2.10;;;29.40;83.30;;;;;;5033222;28;20966;-59
2022/05/20 12:36:33;;;;;;;7.63;1.60;;;29.40;81.50;;;;;;5033223;28;20485;-59
2022/05/20 12:39:16;;;;;;;2.03;1.60;;;29.40;82.70;;;;;;5033269;28;20453;-59
2022/05/20 12:41:45;;;;;;;1.80;1.70;;;29.50;80.50;;;;;;5033004;28;20487;-60
2022/05/20 12:44:36;;;;;;;1.60;1.50;;;29.40;80.60;;;;;;5033204;28;20501;-59
2022/05/20 12:47:29;;;;;;;1.90;1.80;;;29.40;81.30;;;;;;5033227;28;20816;-59
2022/05/20 12:50:06;;;;;;;1.93;1.83;;;29.50;80.80;;;;;;5033064;28;20809;-60
2022/05/20 12:52:44;;;;;;;2.00;1.90;;;29.60;80.00;;;;;;5033117;28;20488;-59
2022/05/20 12:55:18;;;;;;;1.70;1.60;;;29.70;79.00;;;;;;5033005;28;20453;-59
2022/05/20 12:57:51;;;;;;;1.90;1.80;;;29.70;77.70;;;;;;5032960;28;20531;-59
2022/05/20 13:00:26;;;;;;;1.83;1.70;;;29.50;78.70;;;;;;5032349;28;20475;-60
2022/05/20 13:02:55;;;;;;;1.90;1.80;;;29.60;80.20;;;;;;5032981;28;20560;-60
2022/05/20 13:05:29;;;;;;;2.03;1.93;;;29.50;81.30;;;;;;5032889;28;20480;-60
2022/05/20 13:07:58;;;;;;;9.70;2.20;;;29.50;78.20;;;;;;5033163;28;20459;-60
2022/05/20 13:10:28;;;;;;;2.00;1.80;;;29.00;79.60;;;;;;5032854;28;21027;-60
2022/05/20 13:13:01;;;;;;;4.00;2.50;;;28.90;81.00;;;;;;5032751;28;20494;-60
2022/05/20 13:15:27;;;;;;;2.00;1.90;;;29.10;81.20;;;;;;5032853;28;20547;-60
2022/05/20 13:18:08;;;;;;;2.27;1.90;;;29.00;81.40;;;;;;5032824;28;20527;-60
2022/05/20 13:20:38;;;;;;;3.37;2.80;;;29.10;80.30;;;;;;5032841;28;20464;-60
2022/05/20 13:23:07;;;;;;;2.17;2.03;;;29.10;81.20;;;;;;5032448;28;20480;-60
2022/05/20 13:25:35;;;;;;;2.03;1.80;;;28.90;80.00;;;;;;5032495;28;20930;-60
2022/05/20 13:28:02;;;;;;;3.77;2.10;;;28.90;80.40;;;;;;5032725;28;20453;-60
2022/05/20 13:30:31;;;;;;;3.40;2.27;;;29.00;81.20;;;;;;5032567;28;20972;-60
2022/05/20 13:33:02;;;;;;;2.20;2.00;;;29.00;81.30;;;;;;5032822;28;20560;-60
2022/05/20 13:35:29;;;;;;;1.80;1.70;;;29.00;81.70;;;;;;5032647;28;20453;-60
2022/05/20 13:38:01;;;;;;;2.00;1.90;;;29.20;81.20;;;;;;5032837;28;20456;-60
2022/05/20 13:40:32;;;;;;;6.07;2.27;;;29.10;81.00;;;;;;5032985;28;20855;-60
2022/05/20 13:42:59;;;;;;;1.70;1.60;;;29.20;79.10;;;;;;5032474;28;20496;-60
2022/05/20 13:50:59;;;;;;;2.73;2.63;;;29.20;79.90;;;;;;5032522;28;21010;-60